Time;durP1;ratioP1;P1;durP2;ratioP2;P2;SDS_P1;SDS_P2;PMS_P1;PMS_P2;Temp;Humidity;BMP_temperature;BMP_pressure;BME280_temperature;BME280_humidity;BME280_pressure;Samples;Min_cycle;Max_cycle;Signal;HPM_P1;HPM_P2
2023/10/10 00:00:04;;;;;;;;;;;14.70;99.90;;;;;;5020405;28;19917;-96
2023/10/10 00:02:30;;;;;;;;;;;14.70;99.90;;;;;;5019415;28;19921;-94
2023/10/10 00:04:55;;;;;;;;;;;14.60;99.90;;;;;;5019153;28;19917;-93
2023/10/10 00:07:26;;;;;;;;;;;14.60;99.90;;;;;;5002688;28;20156;-94
2023/10/10 00:09:51;;;;;;;;;;;14.70;99.90;;;;;;5003456;28;20030;-95
2023/10/10 00:12:26;;;;;;;;;;;14.60;99.90;;;;;;5002788;28;19917;-94
2023/10/10 00:14:58;;;;;;;;;;;14.70;99.90;;;;;;5004116;28;19921;-95
2023/10/10 00:17:29;;;;;;;;;;;14.20;99.90;;;;;;5019537;28;19925;-96
2023/10/10 00:20:15;;;;;;;;;;;14.60;99.90;;;;;;5018842;28;19947;-95
2023/10/10 00:22:43;;;;;;;;;;;14.70;99.90;;;;;;5035010;28;19917;-95
2023/10/10 00:25:19;;;;;;;;;;;14.60;99.90;;;;;;5018965;28;19982;-96
2023/10/10 00:27:46;;;;;;;;;;;14.60;99.90;;;;;;5003846;28;19921;-96
2023/10/10 00:30:12;;;;;;;;;;;14.60;99.90;;;;;;5002254;28;19928;-95
2023/10/10 00:32:40;;;;;;;;;;;14.60;99.90;;;;;;5002179;28;19917;-96
2023/10/10 00:35:06;;;;;;;;;;;14.30;99.90;;;;;;5018545;28;20028;-95
2023/10/10 00:37:34;;;;;;;;;;;14.50;99.90;;;;;;5002471;28;19939;-96
2023/10/10 00:40:08;;;;;;;;;;;14.60;99.90;;;;;;5021276;28;20430;-95
2023/10/10 00:42:37;;;;;;;;;;;14.80;99.90;;;;;;5020128;28;19940;-96
2023/10/10 00:45:04;;;;;;;;;;;14.50;99.90;;;;;;5025866;28;19979;-96
2023/10/10 00:47:38;;;;;;;;;;;14.50;99.90;;;;;;5027953;28;19928;-96
2023/10/10 00:50:04;;;;;;;;;;;14.50;99.90;;;;;;5027633;28;19917;-96
2023/10/10 00:52:32;;;;;;;;;;;14.50;99.90;;;;;;5005798;28;19924;-96
2023/10/10 00:54:58;;;;;;;;;;;14.60;99.90;;;;;;5021989;28;19921;-96
2023/10/10 00:57:27;;;;;;;;;;;14.60;99.90;;;;;;5002067;28;20416;-95
2023/10/10 00:59:54;;;;;;;;;;;14.60;99.90;;;;;;5003137;28;19924;-96
2023/10/10 01:02:20;;;;;;;;;;;14.60;99.90;;;;;;5002465;28;19920;-96
2023/10/10 01:04:55;;;;;;;;;;;14.60;99.90;;;;;;5022864;28;19917;-96
2023/10/10 01:07:21;;;;;;;;;;;14.50;99.90;;;;;;5023125;28;19916;-96
2023/10/10 01:09:57;;;;;;;;;;;14.70;99.90;;;;;;5022703;28;19943;-96
2023/10/10 01:12:23;;;;;;;;;;;14.60;99.90;;;;;;5024574;28;19921;-96
2023/10/10 01:14:54;;;;;;;;;;;14.60;99.90;;;;;;5025547;28;19921;-96
2023/10/10 01:17:25;;;;;;;;;;;14.60;99.90;;;;;;5028781;28;19921;-96
2023/10/10 01:19:52;;;;;;;;;;;14.20;99.90;;;;;;5026011;28;20007;-96
2023/10/10 01:22:22;;;;;;;;;;;14.20;99.90;;;;;;5025442;28;20012;-96
2023/10/10 01:24:54;;;;;;;;;;;14.50;99.90;;;;;;5026684;28;19917;-96
2023/10/10 01:27:21;;;;;;;;;;;14.50;99.90;;;;;;5025897;28;19944;-96
2023/10/10 01:30:02;;;;;;;;;;;14.50;99.90;;;;;;5021874;28;19920;-96
2023/10/10 01:32:29;;;;;;;;;;;14.60;99.90;;;;;;5019248;28;19917;-96
2023/10/10 01:34:55;;;;;;;;;;;14.60;99.90;;;;;;5025249;28;19921;-96
2023/10/10 01:37:28;;;;;;;;;;;14.60;99.90;;;;;;5026504;28;19924;-96
2023/10/10 01:40:17;;;;;;;;;;;14.10;99.90;;;;;;5019851;28;19924;-96
2023/10/10 01:42:53;;;;;;;;;;;14.20;99.90;;;;;;5026005;28;19917;-96
2023/10/10 01:45:20;;;;;;;;;;;14.60;99.90;;;;;;5021766;28;19921;-94
2023/10/10 01:48:02;;;;;;;;;;;14.60;99.90;;;;;;5020951;28;19923;-96
2023/10/10 01:50:30;;;;;;;;;;;14.70;99.90;;;;;;5026226;28;19917;-95
2023/10/10 01:52:56;;;;;;;;;;;14.60;99.90;;;;;;5022928;28;19917;-95
2023/10/10 01:55:24;;;;;;;;;;;14.60;99.90;;;;;;5018618;28;20044;-96
2023/10/10 01:57:50;;;;;;;;;;;14.70;99.90;;;;;;5026791;28;19999;-96
2023/10/10 02:00:21;;;;;;;;;;;14.70;99.90;;;;;;5028709;28;20007;-96
2023/10/10 02:02:49;;;;;;;;;;;14.60;99.90;;;;;;5021953;28;19917;-96
2023/10/10 02:05:25;;;;;;;;;;;14.70;99.90;;;;;;5014116;28;19917;-95
2023/10/10 02:07:53;;;;;;;;;;;14.70;99.90;;;;;;5016667;28;19917;-94
2023/10/10 02:10:19;;;;;;;;;;;14.70;99.90;;;;;;5022460;28;20094;-96
2023/10/10 02:12:45;;;;;;;;;;;14.80;99.90;;;;;;5021717;28;19967;-96
2023/10/10 02:15:12;;;;;;;;;;;14.70;99.90;;;;;;5007173;28;19917;-94
2023/10/10 02:17:39;;;;;;;;;;;14.80;99.90;;;;;;5026338;28;19983;-96
2023/10/10 02:22:53;;;;;;;;;;;14.80;99.90;;;;;;5021981;28;19956;-94
2023/10/10 02:27:55;;;;;;;;;;;14.80;99.90;;;;;;5023117;28;19917;-96
2023/10/10 02:30:45;;;;;;;;;;;14.80;99.90;;;;;;5019602;28;19928;-95
2023/10/10 02:35:54;;;;;;;;;;;14.80;99.90;;;;;;5041231;28;20434;-96
2023/10/10 02:38:55;;;;;;;;;;;14.70;99.90;;;;;;5026161;28;19943;-94
2023/10/10 02:46:33;;;;;;;;;;;14.90;99.90;;;;;;5039839;28;19921;-96
2023/10/10 02:49:02;;;;;;;;;;;14.80;99.90;;;;;;5030153;28;20022;-96
2023/10/10 02:51:28;;;;;;;;;;;14.80;99.90;;;;;;5023321;28;19917;-96
2023/10/10 02:53:53;;;;;;;;;;;14.90;99.90;;;;;;5021118;28;19927;-96
2023/10/10 02:56:19;;;;;;;;;;;14.90;99.90;;;;;;5026634;28;19921;-95
2023/10/10 02:58:49;;;;;;;;;;;14.90;99.90;;;;;;5020579;28;19917;-95
2023/10/10 03:01:55;;;;;;;;;;;14.90;99.90;;;;;;5021424;28;19917;-96
2023/10/10 03:04:16;;;;;;;;;;;14.90;99.90;;;;;;5038516;28;19921;-96
2023/10/10 03:06:44;;;;;;;;;;;14.90;99.90;;;;;;5021764;28;19980;-95
2023/10/10 03:09:28;;;;;;;;;;;14.90;99.90;;;;;;5020839;28;19921;-96
2023/10/10 03:12:03;;;;;;;;;;;14.80;99.90;;;;;;5020966;28;19917;-95
2023/10/10 03:14:33;;;;;;;;;;;14.90;99.90;;;;;;5020231;28;19960;-95
2023/10/10 03:17:31;;;;;;;;;;;14.90;99.90;;;;;;5020454;28;19960;-95
2023/10/10 03:20:10;;;;;;;;;;;14.90;99.90;;;;;;5036360;28;20020;-96
2023/10/10 03:23:07;;;;;;;;;;;14.90;99.90;;;;;;5020376;28;19916;-96
2023/10/10 03:25:24;;;;;;;;;;;14.90;99.90;;;;;;5040597;28;19975;-96
2023/10/10 03:28:05;;;;;;;;;;;15.00;99.90;;;;;;5020729;28;19921;-96
2023/10/10 03:30:45;;;;;;;;;;;15.00;99.90;;;;;;5018090;28;19924;-96
2023/10/10 03:33:29;;;;;;;;;;;14.90;99.90;;;;;;5020924;28;19928;-96
2023/10/10 03:36:06;;;;;;;;;;;14.90;99.90;;;;;;5021134;28;19917;-95
2023/10/10 05:24:54;;;;;;;;;;;15.00;99.90;;;;;;5024628;28;19917;-95
2023/10/10 05:27:29;;;;;;;;;;;14.90;99.90;;;;;;5001824;28;19921;-96
2023/10/10 05:29:55;;;;;;;;;;;15.00;99.90;;;;;;5018709;28;19921;-95
2023/10/10 05:32:22;;;;;;;;;;;15.00;99.90;;;;;;5017798;28;20403;-95
2023/10/10 05:34:49;;;;;;;;;;;14.90;99.90;;;;;;5001144;28;19921;-95
2023/10/10 05:37:15;;;;;;;;;;;14.90;99.90;;;;;;5017081;28;19917;-91
2023/10/10 05:39:41;;;;;;;;;;;14.90;99.90;;;;;;5013749;28;19928;-96
2023/10/10 05:42:08;;;;;;;;;;;14.90;99.90;;;;;;5017565;28;20004;-95
2023/10/10 05:44:38;;;;;;;;;;;14.90;99.90;;;;;;5019583;28;19917;-93
2023/10/10 05:47:06;;;;;;;;;;;14.90;99.90;;;;;;5014573;28;19917;-94
2023/10/10 05:49:32;;;;;;;;;;;14.90;99.90;;;;;;5011273;28;20280;-94
2023/10/10 05:51:58;;;;;;;;;;;14.90;99.90;;;;;;4984069;28;20431;-96
2023/10/10 05:54:24;;;;;;;;;;;14.90;99.90;;;;;;4982860;28;19921;-96
2023/10/10 05:56:50;;;;;;;;;;;14.90;99.90;;;;;;4986523;28;19936;-96
2023/10/10 05:59:16;;;;;;;;;;;14.90;99.90;;;;;;4999547;28;19917;-96
2023/10/10 06:01:41;;;;;;;;;;;14.80;99.90;;;;;;4997672;28;20039;-95
2023/10/10 06:04:08;;;;;;;;;;;14.80;99.90;;;;;;5016528;28;19920;-95
2023/10/10 06:06:33;;;;;;;;;;;14.90;99.90;;;;;;5000874;28;20284;-95
2023/10/10 06:09:04;;;;;;;;;;;14.90;99.90;;;;;;5001499;28;20015;-93
2023/10/10 06:11:32;;;;;;;;;;;14.90;99.90;;;;;;5000720;28;19921;-94
2023/10/10 06:14:04;;;;;;;;;;;14.90;99.90;;;;;;4997604;28;19921;-90
2023/10/10 06:16:30;;;;;;;;;;;14.60;99.90;;;;;;4999271;28;19944;-93
2023/10/10 06:18:57;;;;;;;;;;;15.00;99.90;;;;;;4999845;28;19921;-93
2023/10/10 06:21:23;;;;;;;;;;;14.90;99.90;;;;;;5016165;28;19916;-94
2023/10/10 06:23:49;;;;;;;;;;;14.90;99.90;;;;;;5013765;28;19987;-92
2023/10/10 06:26:15;;;;;;;;;;;14.90;99.90;;;;;;4995753;28;19917;-91
2023/10/10 06:28:47;;;;;;;;;;;14.90;99.90;;;;;;5009574;28;20261;-94
2023/10/10 06:31:19;;;;;;;;;;;14.90;99.90;;;;;;4997390;28;20004;-93
2023/10/10 06:33:49;;;;;;;;;;;14.90;99.90;;;;;;5026778;28;20012;-92
2023/10/10 06:38:59;;;;;;;;;;;14.90;99.90;;;;;;5022096;28;19917;-93
2023/10/10 06:41:27;;;;;;;;;;;15.00;99.90;;;;;;5013015;28;19916;-91
2023/10/10 06:43:52;;;;;;;;;;;15.00;99.90;;;;;;4996216;28;20000;-91
2023/10/10 06:46:18;;;;;;;;;;;15.10;99.90;;;;;;5014726;28;20015;-89
2023/10/10 06:48:50;;;;;;;;;;;15.00;99.90;;;;;;4997861;28;19921;-92
2023/10/10 06:51:21;;;;;;;;;;;15.10;99.90;;;;;;5016713;28;19994;-92
2023/10/10 06:53:48;;;;;;;;;;;15.10;99.90;;;;;;5003083;28;19927;-91
2023/10/10 06:56:17;;;;;;;;;;;15.20;99.90;;;;;;5001293;28;19917;-88
2023/10/10 06:58:44;;;;;;;;;;;15.10;99.90;;;;;;5002291;28;20023;-92
2023/10/10 07:01:11;;;;;;;;;;;15.20;99.90;;;;;;5018387;28;19921;-91
2023/10/10 07:03:41;;;;;;;;;;;15.20;99.90;;;;;;4998636;28;19964;-91
2023/10/10 07:06:10;;;;;;;;;;;15.40;99.90;;;;;;5013769;28;19924;-94
2023/10/10 07:08:35;;;;;;;;;;;15.40;99.90;;;;;;5018538;28;19917;-92
2023/10/10 07:11:01;;;;;;;;;;;15.50;99.90;;;;;;5002146;28;20526;-94
2023/10/10 07:13:30;;;;;;;;;;;15.50;99.90;;;;;;5036027;28;19921;-93
2023/10/10 07:15:59;;;;;;;;;;;15.50;99.90;;;;;;5002278;28;19931;-95
2023/10/10 07:18:25;;;;;;;;;;;15.50;99.90;;;;;;5019366;28;19940;-94
2023/10/10 07:21:08;;;;;;;;;;;15.50;99.90;;;;;;5018577;28;19917;-93
2023/10/10 07:23:37;;;;;;;;;;;15.70;99.90;;;;;;5019929;28;19917;-95
2023/10/10 07:26:08;;;;;;;;;;;15.80;99.90;;;;;;5018962;28;19962;-93
2023/10/10 07:28:36;;;;;;;;;;;15.80;99.90;;;;;;5030023;28;19920;-93
2023/10/10 07:31:07;;;;;;;;;;;16.80;99.90;;;;;;5019488;28;19927;-95
2023/10/10 07:33:40;;;;;;;;;;;16.10;99.90;;;;;;5001747;28;20411;-95
2023/10/10 07:36:06;;;;;;;;;;;16.20;99.90;;;;;;5010263;28;19928;-95
2023/10/10 07:38:35;;;;;;;;;;;16.30;99.90;;;;;;5018586;28;19917;-90
2023/10/10 07:41:04;;;;;;;;;;;16.30;99.90;;;;;;5002807;28;19940;-92
2023/10/10 07:43:34;;;;;;;;;;;16.30;99.90;;;;;;5001488;28;19925;-90
2023/10/10 07:46:12;;;;;;;;;;;16.40;99.90;;;;;;5009280;28;19928;-94
2023/10/10 07:48:39;;;;;;;;;;;16.50;99.90;;;;;;5002195;28;19925;-93
2023/10/10 07:51:08;;;;;;;;;;;17.10;99.90;;;;;;5002829;28;19917;-94
2023/10/10 07:53:40;;;;;;;;;;;16.70;99.90;;;;;;4992358;28;19921;-92
2023/10/10 07:56:06;;;;;;;;;;;16.80;99.90;;;;;;5026806;28;19972;-91
2023/10/10 07:58:45;;;;;;;;;;;17.00;99.90;;;;;;5001416;28;19979;-90
2023/10/10 08:01:16;;;;;;;;;;;17.00;99.90;;;;;;5002937;28;20311;-90
2023/10/10 08:03:44;;;;;;;;;;;17.00;99.90;;;;;;5034428;28;20008;-94
2023/10/10 08:06:10;;;;;;;;;;;16.90;99.90;;;;;;5018373;28;19943;-94
2023/10/10 08:08:36;;;;;;;;;;;16.90;99.90;;;;;;5026825;28;19916;-96
2023/10/10 08:11:06;;;;;;;;;;;16.90;99.90;;;;;;5011077;28;19924;-93
2023/10/10 08:13:32;;;;;;;;;;;16.80;99.90;;;;;;5017366;28;19925;-90
2023/10/10 08:16:02;;;;;;;;;;;16.70;99.90;;;;;;5013805;28;20242;-96
2023/10/10 08:18:49;;;;;;;;;;;16.00;99.90;;;;;;5003138;28;19917;-92
2023/10/10 08:21:15;;;;;;;;;;;16.30;99.90;;;;;;5018001;28;19924;-96
2023/10/10 08:23:49;;;;;;;;;;;16.70;99.90;;;;;;5017623;28;19925;-92
2023/10/10 08:26:19;;;;;;;;;;;16.80;99.90;;;;;;4995952;28;20451;-92
2023/10/10 08:28:48;;;;;;;;;;;16.80;99.90;;;;;;5014305;28;19972;-95
2023/10/10 08:31:17;;;;;;;;;;;16.80;99.90;;;;;;5027992;28;19921;-96
2023/10/10 08:33:46;;;;;;;;;;;16.80;99.90;;;;;;5009864;28;19921;-90
2023/10/10 08:36:19;;;;;;;;;;;16.90;99.90;;;;;;4991798;28;19968;-91
2023/10/10 08:38:45;;;;;;;;;;;16.90;99.90;;;;;;5004688;28;20276;-95
2023/10/10 08:41:11;;;;;;;;;;;16.90;99.90;;;;;;5003982;28;19917;-92
2023/10/10 08:43:42;;;;;;;;;;;16.90;99.90;;;;;;5006551;28;19917;-92
2023/10/10 08:46:09;;;;;;;;;;;17.00;99.90;;;;;;5020877;28;19917;-95
2023/10/10 08:48:36;;;;;;;;;;;17.10;99.90;;;;;;5025937;28;19921;-95
2023/10/10 08:51:04;;;;;;;;;;;17.20;99.90;;;;;;5017776;28;19917;-96
2023/10/10 08:53:35;;;;;;;;;;;17.20;99.90;;;;;;5006069;28;19971;-91
2023/10/10 08:56:02;;;;;;;;;;;17.20;99.90;;;;;;5016893;28;19939;-92
2023/10/10 08:58:31;;;;;;;;;;;17.30;99.90;;;;;;5001570;28;19976;-91
2023/10/10 09:01:00;;;;;;;;;;;17.30;99.90;;;;;;5004791;28;19916;-95
2023/10/10 09:03:26;;;;;;;;;;;17.40;99.90;;;;;;5004911;28;19917;-92
2023/10/10 09:05:52;;;;;;;;;;;17.50;99.90;;;;;;5033049;28;19925;-92
2023/10/10 09:08:19;;;;;;;;;;;17.60;99.90;;;;;;5001563;28;20011;-94
2023/10/10 09:10:46;;;;;;;;;;;17.60;99.90;;;;;;5016895;28;19917;-92
2023/10/10 09:13:11;;;;;;;;;;;17.70;99.90;;;;;;4985327;28;19996;-92
2023/10/10 09:15:55;;;;;;;;;;;17.90;99.90;;;;;;5001702;28;20345;-96
2023/10/10 09:18:28;;;;;;;;;;;;;;;;;;5008411;28;20335;-94
2023/10/10 09:21:22;;;;;;;;;;;18.00;99.90;;;;;;5018120;28;19917;-95
2023/10/10 09:26:36;;;;;;;;;;;18.40;99.90;;;;;;5022371;28;19917;-95
2023/10/10 09:29:15;;;;;;;;;;;18.10;99.90;;;;;;5000606;28;19924;-91
2023/10/10 09:31:45;;;;;;;;;;;18.10;99.90;;;;;;5001994;28;19921;-94
2023/10/10 09:34:12;;;;;;;;;;;;;;;;;;5019720;28;20019;-96
2023/10/10 09:36:50;;;;;;;;;;;18.30;99.90;;;;;;5018432;28;19927;-95
2023/10/10 09:39:35;;;;;;;;;;;18.30;99.90;;;;;;5002579;28;20265;-90
2023/10/10 09:42:01;;;;;;;;;;;18.40;99.90;;;;;;5015453;28;19980;-94
2023/10/10 09:44:53;;;;;;;;;;;18.50;99.90;;;;;;4993543;28;19959;-93
2023/10/10 09:47:37;;;;;;;;;;;18.60;99.90;;;;;;5015900;28;19961;-95
2023/10/10 09:50:34;;;;;;;;;;;18.80;99.90;;;;;;4987106;28;19917;-91
2023/10/10 09:52:59;;;;;;;;;;;18.80;99.90;;;;;;5028325;28;19975;-96
2023/10/10 09:58:01;;;;;;;;;;;19.00;99.90;;;;;;5035530;28;19917;-95
2023/10/10 10:05:58;;;;;;;;;;;19.10;99.90;;;;;;5036430;28;19975;-96
2023/10/10 10:08:37;;;;;;;;;;;19.10;99.90;;;;;;5018855;28;20292;-95
2023/10/10 10:11:35;;;;;;;;;;;19.20;99.90;;;;;;5015528;28;20410;-95
2023/10/10 10:14:17;;;;;;;;;;;19.20;99.90;;;;;;4987450;28;19932;-96
2023/10/10 10:16:58;;;;;;;;;;;19.30;99.90;;;;;;5023547;28;19917;-95
2023/10/10 10:19:28;;;;;;;;;;;19.30;99.90;;;;;;5016607;28;19979;-95
2023/10/10 10:22:13;;;;;;;;;;;19.30;99.90;;;;;;5017395;28;19917;-92
2023/10/10 10:25:20;;;;;;;;;;;19.40;99.90;;;;;;5024619;28;19917;-92
2023/10/10 10:27:43;;;;;;;;;;;19.40;99.90;;;;;;5037249;28;19917;-94
2023/10/10 10:32:46;;;;;;;;;;;19.50;99.90;;;;;;5019572;28;20541;-96
2023/10/10 10:35:22;;;;;;;;;;;19.50;99.90;;;;;;5009097;28;19921;-93
2023/10/10 10:38:17;;;;;;;;;;;19.50;99.90;;;;;;5029302;28;19917;-91
2023/10/10 10:40:46;;;;;;;;;;;19.60;99.90;;;;;;5021263;28;19912;-95
2023/10/10 10:43:20;;;;;;;;;;;19.60;99.90;;;;;;5002710;28;20065;-88
2023/10/10 10:46:07;;;;;;;;;;;19.70;99.90;;;;;;5022528;28;20000;-95
2023/10/10 10:48:34;;;;;;;;;;;19.80;99.90;;;;;;5022150;28;19917;-96
2023/10/10 10:51:26;;;;;;;;;;;19.80;99.90;;;;;;5023442;28;19970;-95
2023/10/10 10:53:58;;;;;;;;;;;20.00;99.90;;;;;;5020017;28;20040;-94
2023/10/10 10:59:12;;;;;;;;;;;20.10;99.90;;;;;;5030000;28;19957;-93
2023/10/10 11:01:42;;;;;;;;;;;20.20;99.90;;;;;;5003679;28;19917;-96
2023/10/10 11:04:14;;;;;;;;;;;20.30;99.90;;;;;;5001754;28;20360;-96
2023/10/10 11:06:59;;;;;;;;;;;20.30;99.90;;;;;;5009335;28;19921;-95
2023/10/10 11:09:28;;;;;;;;;;;20.40;99.90;;;;;;5023694;28;19924;-96
2023/10/10 11:12:04;;;;;;;;;;;20.50;99.90;;;;;;5027721;28;19917;-96
2023/10/10 11:14:31;;;;;;;;;;;20.60;99.90;;;;;;5033426;28;19925;-96
2023/10/10 11:16:57;;;;;;;;;;;20.60;99.90;;;;;;5020733;28;19924;-95
2023/10/10 11:25:11;;;;;;;;;;;20.70;99.90;;;;;;5040386;28;19924;-96
2023/10/10 11:27:47;;;;;;;;;;;20.60;99.90;;;;;;5023353;28;19917;-95
2023/10/10 11:30:24;;;;;;;;;;;21.20;99.90;;;;;;5021138;28;19921;-96
2023/10/10 11:33:18;;;;;;;;;;;20.60;99.90;;;;;;5042719;28;19924;-95
2023/10/10 11:35:48;;;;;;;;;;;20.80;99.90;;;;;;5028095;28;19963;-92
2023/10/10 11:38:16;;;;;;;;;;;20.50;99.90;;;;;;5019415;28;19956;-93
2023/10/10 11:40:52;;;;;;;;;;;20.90;99.90;;;;;;5004728;28;19921;-95
2023/10/10 11:43:30;;;;;;;;;;;20.50;99.90;;;;;;5034829;28;19968;-94
2023/10/10 11:45:55;;;;;;;;;;;21.50;99.90;;;;;;5007699;28;20316;-94
2023/10/10 11:48:23;;;;;;;;;;;20.70;99.90;;;;;;5006107;28;19917;-94
2023/10/10 11:50:59;;;;;;;;;;;20.70;99.90;;;;;;5005842;28;19917;-96
2023/10/10 11:53:29;;;;;;;;;;;20.80;99.90;;;;;;5022832;28;19921;-95
2023/10/10 11:56:00;;;;;;;;;;;20.80;99.90;;;;;;5012978;28;19916;-92
2023/10/10 11:58:36;;;;;;;;;;;20.90;99.90;;;;;;5038607;28;19917;-96
2023/10/10 12:01:05;;;;;;;;;;;20.80;99.90;;;;;;5021056;28;20254;-95
2023/10/10 12:03:41;;;;;;;;;;;20.70;99.90;;;;;;5023607;28;20004;-94
2023/10/10 12:06:26;;;;;;;;;;;20.70;99.90;;;;;;5014232;28;19917;-95
2023/10/10 12:08:55;;;;;;;;;;;20.70;99.90;;;;;;5022713;28;19917;-93
2023/10/10 12:11:32;;;;;;;;;;;20.70;99.90;;;;;;5023130;28;19917;-94
2023/10/10 12:14:01;;;;;;;;;;;20.60;99.90;;;;;;5021646;28;19921;-96
2023/10/10 12:16:27;;;;;;;;;;;20.70;99.90;;;;;;5023045;28;19972;-95
2023/10/10 12:18:53;;;;;;;;;;;20.70;99.90;;;;;;5033801;28;19921;-96
2023/10/10 12:21:20;;;;;;;;;;;20.70;99.90;;;;;;5045159;28;19916;-94
2023/10/10 12:23:52;;;;;;;;;;;20.60;99.90;;;;;;5038766;28;19924;-95
2023/10/10 12:26:18;;;;;;;;;;;20.70;99.90;;;;;;5003355;28;19918;-95
2023/10/10 12:28:47;;;;;;;;;;;20.60;99.90;;;;;;5017178;28;19968;-94
2023/10/10 12:31:16;;;;;;;;;;;20.60;99.90;;;;;;5016208;28;20071;-93
2023/10/10 12:33:45;;;;;;;;;;;20.20;99.90;;;;;;5001802;28;20312;-95
2023/10/10 12:36:11;;;;;;;;;;;20.50;99.90;;;;;;5016802;28;19968;-95
2023/10/10 12:38:40;;;;;;;;;;;20.50;99.90;;;;;;5016307;28;19917;-95
2023/10/10 12:41:06;;;;;;;;;;;20.40;99.90;;;;;;5020216;28;19983;-94
2023/10/10 12:43:32;;;;;;;;;;;20.50;99.90;;;;;;5021677;28;19917;-95
2023/10/10 12:46:01;;;;;;;;;;;20.50;99.90;;;;;;5022946;28;19975;-96
2023/10/10 12:48:26;;;;;;;;;;;20.50;99.90;;;;;;5020137;28;19920;-95
2023/10/10 12:50:52;;;;;;;;;;;20.60;99.90;;;;;;5019767;28;20356;-95
2023/10/10 12:53:20;;;;;;;;;;;20.60;99.90;;;;;;5004082;28;19920;-94
2023/10/10 12:55:52;;;;;;;;;;;20.70;99.90;;;;;;5017970;28;19964;-93
2023/10/10 12:58:20;;;;;;;;;;;20.70;99.90;;;;;;5018465;28;19967;-94
2023/10/10 13:00:52;;;;;;;;;;;20.80;99.90;;;;;;5019092;28;20313;-96
2023/10/10 13:03:19;;;;;;;;;;;20.80;99.90;;;;;;5018272;28;19924;-92
2023/10/10 13:05:48;;;;;;;;;;;20.80;99.90;;;;;;5018971;28;19917;-94
2023/10/10 13:08:15;;;;;;;;;;;20.80;99.90;;;;;;5017841;28;19964;-93
2023/10/10 13:10:44;;;;;;;;;;;20.80;99.90;;;;;;5018429;28;19924;-94
2023/10/10 13:13:10;;;;;;;;;;;20.70;99.90;;;;;;5002999;28;19921;-94
2023/10/10 13:15:49;;;;;;;;;;;20.70;99.90;;;;;;5003083;28;19968;-95
2023/10/10 13:18:22;;;;;;;;;;;20.70;99.90;;;;;;5019386;28;19917;-93
2023/10/10 13:20:50;;;;;;;;;;;20.70;99.90;;;;;;5019956;28;19917;-95
2023/10/10 13:23:17;;;;;;;;;;;20.70;99.90;;;;;;5003142;28;19917;-93
2023/10/10 13:25:43;;;;;;;;;;;20.70;99.90;;;;;;5017216;28;20281;-92
2023/10/10 13:28:17;;;;;;;;;;;20.80;99.90;;;;;;5001656;28;19917;-94
2023/10/10 13:30:46;;;;;;;;;;;20.80;99.90;;;;;;5013495;28;20428;-93
2023/10/10 13:33:15;;;;;;;;;;;21.00;99.90;;;;;;4998767;28;19993;-95
2023/10/10 13:35:41;;;;;;;;;;;20.80;99.90;;;;;;4999488;28;19925;-95
2023/10/10 13:38:08;;;;;;;;;;;20.80;99.90;;;;;;4998357;28;20016;-95
2023/10/10 13:40:48;;;;;;;;;;;20.70;99.90;;;;;;4984441;28;19980;-95
2023/10/10 13:43:17;;;;;;;;;;;20.70;99.90;;;;;;5000797;28;20260;-95
2023/10/10 13:45:48;;;;;;;;;;;20.70;99.90;;;;;;5016987;28;20340;-92
2023/10/10 13:48:14;;;;;;;;;;;20.40;99.90;;;;;;5016646;28;20250;-91
2023/10/10 13:50:44;;;;;;;;;;;20.60;99.90;;;;;;4996332;28;19927;-90
2023/10/10 13:53:12;;;;;;;;;;;20.50;99.90;;;;;;4999818;28;20542;-94
2023/10/10 13:55:44;;;;;;;;;;;20.40;99.90;;;;;;5009945;28;20011;-94
2023/10/10 13:58:12;;;;;;;;;;;20.40;99.90;;;;;;5016483;28;19928;-95
2023/10/10 14:00:39;;;;;;;;;;;20.30;99.90;;;;;;5012473;28;19971;-94
2023/10/10 14:03:05;;;;;;;;;;;20.20;99.90;;;;;;5023566;28;19924;-93
2023/10/10 14:05:33;;;;;;;;;;;20.20;99.90;;;;;;5022518;28;20023;-94
2023/10/10 14:08:00;;;;;;;;;;;20.10;99.90;;;;;;5023292;28;19917;-91
2023/10/10 14:10:38;;;;;;;;;;;20.10;99.90;;;;;;5006535;28;19969;-95
2023/10/10 14:13:19;;;;;;;;;;;20.20;99.90;;;;;;5029666;28;20562;-95
2023/10/10 14:15:55;;;;;;;;;;;20.10;99.90;;;;;;5016369;28;20279;-89
2023/10/10 14:18:49;;;;;;;;;;;20.00;99.90;;;;;;5012026;28;19920;-95
2023/10/10 14:21:16;;;;;;;;;;;20.10;99.90;;;;;;5030738;28;19939;-93
2023/10/10 14:23:44;;;;;;;;;;;20.10;99.90;;;;;;5023380;28;19923;-94
2023/10/10 14:26:13;;;;;;;;;;;20.00;99.90;;;;;;4994803;28;20041;-94
2023/10/10 14:28:41;;;;;;;;;;;20.00;99.90;;;;;;5023654;28;19983;-92
2023/10/10 14:31:12;;;;;;;;;;;20.00;99.90;;;;;;5039661;28;19921;-94
2023/10/10 14:33:40;;;;;;;;;;;20.00;99.90;;;;;;5023144;28;20083;-94
2023/10/10 14:36:12;;;;;;;;;;;19.90;99.90;;;;;;4995336;28;19921;-93
2023/10/10 14:38:39;;;;;;;;;;;19.90;99.90;;;;;;5008432;28;19972;-95
2023/10/10 14:41:07;;;;;;;;;;;19.90;99.90;;;;;;5019093;28;19967;-95
2023/10/10 14:43:33;;;;;;;;;;;19.80;99.90;;;;;;5009175;28;19917;-94
2023/10/10 14:45:59;;;;;;;;;;;19.80;99.90;;;;;;5021252;28;19986;-94
2023/10/10 14:48:24;;;;;;;;;;;19.70;99.90;;;;;;5023515;28;19917;-96
2023/10/10 14:50:53;;;;;;;;;;;19.70;99.90;;;;;;5006576;28;19921;-95
2023/10/10 14:53:22;;;;;;;;;;;19.70;99.90;;;;;;5004329;28;19921;-95
2023/10/10 14:55:51;;;;;;;;;;;19.60;99.90;;;;;;5018052;28;20434;-92
2023/10/10 14:58:21;;;;;;;;;;;19.60;99.90;;;;;;5013966;28;19924;-94
2023/10/10 15:00:49;;;;;;;;;;;19.40;99.90;;;;;;5023269;28;19924;-96
2023/10/10 15:03:15;;;;;;;;;;;19.60;99.90;;;;;;5019423;28;19918;-92
2023/10/10 15:05:47;;;;;;;;;;;19.50;99.90;;;;;;5013988;28;19925;-93
2023/10/10 15:08:16;;;;;;;;;;;19.50;99.90;;;;;;5021961;28;19917;-95
2023/10/10 15:10:42;;;;;;;;;;;19.60;99.90;;;;;;5019729;28;20244;-90
2023/10/10 15:13:08;;;;;;;;;;;19.60;99.90;;;;;;5016453;28;19924;-93
2023/10/10 15:15:35;;;;;;;;;;;19.60;99.90;;;;;;5013207;28;19928;-95
2023/10/10 15:18:01;;;;;;;;;;;19.60;99.90;;;;;;5002830;28;19916;-93
2023/10/10 15:20:27;;;;;;;;;;;19.60;99.90;;;;;;4999705;28;19928;-96
2023/10/10 15:22:56;;;;;;;;;;;19.60;99.90;;;;;;5003317;28;19960;-93
2023/10/10 15:25:21;;;;;;;;;;;19.60;99.90;;;;;;5019148;28;19920;-94
2023/10/10 15:27:49;;;;;;;;;;;19.60;99.90;;;;;;4999661;28;19924;-94
2023/10/10 15:30:15;;;;;;;;;;;19.60;99.90;;;;;;5015379;28;19921;-93
2023/10/10 15:32:46;;;;;;;;;;;19.60;99.90;;;;;;5013059;28;19917;-90
2023/10/10 15:35:16;;;;;;;;;;;19.50;99.90;;;;;;4984342;28;20016;-96
2023/10/10 15:37:42;;;;;;;;;;;19.50;99.90;;;;;;5012049;28;19917;-94
2023/10/10 15:40:12;;;;;;;;;;;19.50;99.90;;;;;;5014454;28;19923;-93
2023/10/10 15:42:39;;;;;;;;;;;19.40;99.90;;;;;;5019457;28;20224;-95
2023/10/10 15:45:05;;;;;;;;;;;19.40;99.90;;;;;;5002649;28;19923;-93
2023/10/10 15:47:31;;;;;;;;;;;19.00;99.90;;;;;;5036054;28;19921;-96
2023/10/10 15:50:00;;;;;;;;;;;19.40;99.90;;;;;;5029437;28;19916;-96
2023/10/10 15:52:27;;;;;;;;;;;19.30;99.90;;;;;;5026544;28;19917;-96
2023/10/10 15:54:52;;;;;;;;;;;19.30;99.90;;;;;;5005452;28;19920;-94
2023/10/10 15:57:22;;;;;;;;;;;19.20;99.90;;;;;;5021974;28;19917;-94
2023/10/10 15:59:48;;;;;;;;;;;19.20;99.90;;;;;;5021503;28;19927;-95
2023/10/10 16:02:13;;;;;;;;;;;19.20;99.90;;;;;;5005113;28;19917;-96
2023/10/10 16:04:42;;;;;;;;;;;19.10;99.90;;;;;;5002359;28;20132;-96
2023/10/10 16:07:08;;;;;;;;;;;19.00;99.90;;;;;;4999496;28;19917;-94
2023/10/10 16:09:33;;;;;;;;;;;19.00;99.90;;;;;;5013366;28;20504;-92
2023/10/10 16:11:59;;;;;;;;;;;19.00;99.90;;;;;;4998329;28;19924;-96
2023/10/10 16:14:25;;;;;;;;;;;19.00;99.90;;;;;;5028824;28;19925;-95
2023/10/10 16:16:51;;;;;;;;;;;18.90;99.90;;;;;;5000656;28;19921;-94
2023/10/10 16:19:20;;;;;;;;;;;18.90;99.90;;;;;;5017669;28;19917;-92
2023/10/10 16:21:50;;;;;;;;;;;18.90;99.90;;;;;;5017084;28;19955;-92
2023/10/10 16:24:16;;;;;;;;;;;18.90;99.90;;;;;;5017429;28;19917;-94
2023/10/10 16:26:43;;;;;;;;;;;18.80;99.90;;;;;;5016062;28;19928;-94
2023/10/10 16:29:08;;;;;;;;;;;18.80;99.90;;;;;;5019713;28;19924;-94
2023/10/10 16:31:36;;;;;;;;;;;18.70;99.90;;;;;;5017224;28;19922;-95
2023/10/10 16:34:02;;;;;;;;;;;18.70;99.90;;;;;;5029434;28;20261;-96
2023/10/10 16:36:28;;;;;;;;;;;18.70;99.90;;;;;;5021545;28;20003;-94
2023/10/10 16:38:54;;;;;;;;;;;18.70;99.90;;;;;;4998242;28;19924;-92
2023/10/10 16:41:22;;;;;;;;;;;18.60;99.90;;;;;;5018367;28;20402;-93
2023/10/10 16:43:48;;;;;;;;;;;18.70;99.90;;;;;;5017092;28;19921;-93
2023/10/10 16:46:14;;;;;;;;;;;18.60;99.90;;;;;;5005164;28;19939;-92
2023/10/10 16:48:40;;;;;;;;;;;18.60;99.90;;;;;;5036634;28;19932;-94
2023/10/10 16:51:09;;;;;;;;;;;18.60;99.90;;;;;;5000255;28;19983;-92
2023/10/10 16:53:43;;;;;;;;;;;18.50;99.90;;;;;;5016195;28;19928;-94
2023/10/10 16:56:09;;;;;;;;;;;18.10;99.90;;;;;;5000899;28;19987;-93
2023/10/10 16:58:38;;;;;;;;;;;18.50;99.90;;;;;;5017082;28;19917;-95
2023/10/10 17:01:05;;;;;;;;;;;18.50;99.90;;;;;;5000819;28;20325;-93